sensor_id;sensor_type;location;lat;lon;timestamp;temperature;humidity
25138;DHT22;13112;50.986;4.354;2023-02-19T00:01:28;11.30;99.90
25138;DHT22;13112;50.986;4.354;2023-02-19T00:04:06;11.30;99.90
25138;DHT22;13112;50.986;4.354;2023-02-19T00:06:34;11.20;99.90
25138;DHT22;13112;50.986;4.354;2023-02-19T00:09:00;11.20;99.90
25138;DHT22;13112;50.986;4.354;2023-02-19T00:11:28;11.20;99.90
25138;DHT22;13112;50.986;4.354;2023-02-19T00:13:55;11.30;99.90
25138;DHT22;13112;50.986;4.354;2023-02-19T00:16:23;11.40;99.90
25138;DHT22;13112;50.986;4.354;2023-02-19T00:18:50;11.30;99.90
25138;DHT22;13112;50.986;4.354;2023-02-19T00:21:16;11.20;99.90
25138;DHT22;13112;50.986;4.354;2023-02-19T00:23:42;11.20;99.90
25138;DHT22;13112;50.986;4.354;2023-02-19T00:26:10;11.30;99.90
25138;DHT22;13112;50.986;4.354;2023-02-19T00:28:37;11.30;99.90
25138;DHT22;13112;50.986;4.354;2023-02-19T00:31:07;11.30;99.90
25138;DHT22;13112;50.986;4.354;2023-02-19T00:33:33;11.30;99.90
25138;DHT22;13112;50.986;4.354;2023-02-19T00:36:03;11.30;99.90
25138;DHT22;13112;50.986;4.354;2023-02-19T00:38:30;11.30;99.90
25138;DHT22;13112;50.986;4.354;2023-02-19T00:40:57;11.30;99.90
25138;DHT22;13112;50.986;4.354;2023-02-19T00:43:24;11.10;99.90
25138;DHT22;13112;50.986;4.354;2023-02-19T00:45:50;11.10;99.90
25138;DHT22;13112;50.986;4.354;2023-02-19T00:48:16;11.10;99.90
25138;DHT22;13112;50.986;4.354;2023-02-19T00:50:42;11.10;99.90
25138;DHT22;13112;50.986;4.354;2023-02-19T00:53:08;11.10;99.90
25138;DHT22;13112;50.986;4.354;2023-02-19T00:55:33;11.10;99.90
25138;DHT22;13112;50.986;4.354;2023-02-19T00:57:59;11.00;99.90
25138;DHT22;13112;50.986;4.354;2023-02-19T01:00:24;11.00;99.90
25138;DHT22;13112;50.986;4.354;2023-02-19T01:02:50;11.10;99.90
25138;DHT22;13112;50.986;4.354;2023-02-19T01:05:16;11.10;99.90
25138;DHT22;13112;50.986;4.354;2023-02-19T01:07:42;11.10;99.90
25138;DHT22;13112;50.986;4.354;2023-02-19T01:10:07;11.20;99.90
25138;DHT22;13112;50.986;4.354;2023-02-19T01:12:33;11.20;99.90
25138;DHT22;13112;50.986;4.354;2023-02-19T01:14:59;11.20;99.90
25138;DHT22;13112;50.986;4.354;2023-02-19T01:17:24;11.30;99.90
25138;DHT22;13112;50.986;4.354;2023-02-19T01:19:50;11.20;99.90
25138;DHT22;13112;50.986;4.354;2023-02-19T01:22:16;11.10;99.90
25138;DHT22;13112;50.986;4.354;2023-02-19T01:24:41;11.10;99.90
25138;DHT22;13112;50.986;4.354;2023-02-19T01:27:07;11.00;99.90
25138;DHT22;13112;50.986;4.354;2023-02-19T01:29:33;11.10;99.90
25138;DHT22;13112;50.986;4.354;2023-02-19T01:31:58;11.10;99.90
25138;DHT22;13112;50.986;4.354;2023-02-19T01:34:24;11.10;99.90
25138;DHT22;13112;50.986;4.354;2023-02-19T01:36:51;11.10;99.90
25138;DHT22;13112;50.986;4.354;2023-02-19T01:39:17;11.20;99.90
25138;DHT22;13112;50.986;4.354;2023-02-19T01:41:43;11.40;99.90
25138;DHT22;13112;50.986;4.354;2023-02-19T01:46:43;11.00;99.90
25138;DHT22;13112;50.986;4.354;2023-02-19T01:49:19;11.00;99.90
25138;DHT22;13112;50.986;4.354;2023-02-19T01:54:21;11.20;99.90
25138;DHT22;13112;50.986;4.354;2023-02-19T01:56:50;11.00;99.90
25138;DHT22;13112;50.986;4.354;2023-02-19T01:59:17;11.00;99.90
25138;DHT22;13112;50.986;4.354;2023-02-19T02:01:44;11.00;99.90
25138;DHT22;13112;50.986;4.354;2023-02-19T02:04:11;11.00;99.90
25138;DHT22;13112;50.986;4.354;2023-02-19T02:06:52;10.90;99.90
25138;DHT22;13112;50.986;4.354;2023-02-19T02:09:19;11.00;99.90
25138;DHT22;13112;50.986;4.354;2023-02-19T02:12:03;10.90;99.90
25138;DHT22;13112;50.986;4.354;2023-02-19T02:14:35;11.00;99.90
25138;DHT22;13112;50.986;4.354;2023-02-19T02:20:06;11.00;99.90
25138;DHT22;13112;50.986;4.354;2023-02-19T02:28:27;11.10;99.90
25138;DHT22;13112;50.986;4.354;2023-02-19T02:31:15;11.00;99.90
25138;DHT22;13112;50.986;4.354;2023-02-19T02:34:05;11.00;99.90
25138;DHT22;13112;50.986;4.354;2023-02-19T02:36:35;11.10;99.90
25138;DHT22;13112;50.986;4.354;2023-02-19T02:39:02;11.10;99.90
25138;DHT22;13112;50.986;4.354;2023-02-19T02:41:31;11.00;99.90
25138;DHT22;13112;50.986;4.354;2023-02-19T02:43:57;11.10;99.90
25138;DHT22;13112;50.986;4.354;2023-02-19T02:46:34;11.10;99.90
25138;DHT22;13112;50.986;4.354;2023-02-19T02:49:04;11.00;99.90
25138;DHT22;13112;50.986;4.354;2023-02-19T02:51:39;11.10;99.90
25138;DHT22;13112;50.986;4.354;2023-02-19T02:54:09;11.10;99.90
25138;DHT22;13112;50.986;4.354;2023-02-19T02:56:55;11.10;99.90
25138;DHT22;13112;50.986;4.354;2023-02-19T02:59:24;11.10;99.90
25138;DHT22;13112;50.986;4.354;2023-02-19T03:01:59;11.00;99.90
25138;DHT22;13112;50.986;4.354;2023-02-19T03:10:14;11.20;99.90
25138;DHT22;13112;50.986;4.354;2023-02-19T03:12:44;11.00;99.90
25138;DHT22;13112;50.986;4.354;2023-02-19T03:15:34;11.10;99.90
25138;DHT22;13112;50.986;4.354;2023-02-19T03:18:21;11.00;99.90
25138;DHT22;13112;50.986;4.354;2023-02-19T03:21:06;11.00;99.90
25138;DHT22;13112;50.986;4.354;2023-02-19T03:23:34;11.00;99.90
25138;DHT22;13112;50.986;4.354;2023-02-19T03:26:20;11.10;99.90
25138;DHT22;13112;50.986;4.354;2023-02-19T03:28:47;11.10;99.90
25138;DHT22;13112;50.986;4.354;2023-02-19T03:31:33;11.10;99.90
25138;DHT22;13112;50.986;4.354;2023-02-19T03:34:04;11.10;99.90
25138;DHT22;13112;50.986;4.354;2023-02-19T03:36:41;11.00;99.90
25138;DHT22;13112;50.986;4.354;2023-02-19T03:39:09;11.10;99.90
25138;DHT22;13112;50.986;4.354;2023-02-19T03:47:34;11.10;99.90
25138;DHT22;13112;50.986;4.354;2023-02-19T03:55:26;11.10;99.90
25138;DHT22;13112;50.986;4.354;2023-02-19T03:58:06;11.00;99.90
25138;DHT22;13112;50.986;4.354;2023-02-19T04:00:43;10.90;99.90
25138;DHT22;13112;50.986;4.354;2023-02-19T04:03:36;10.90;99.90
25138;DHT22;13112;50.986;4.354;2023-02-19T04:06:10;11.00;99.90
25138;DHT22;13112;50.986;4.354;2023-02-19T04:08:39;10.90;99.90
25138;DHT22;13112;50.986;4.354;2023-02-19T04:11:07;11.00;99.90
25138;DHT22;13112;50.986;4.354;2023-02-19T04:13:44;11.00;99.90
25138;DHT22;13112;50.986;4.354;2023-02-19T04:16:16;10.90;99.90
25138;DHT22;13112;50.986;4.354;2023-02-19T04:18:46;10.90;99.90
25138;DHT22;13112;50.986;4.354;2023-02-19T04:21:14;11.00;99.90
25138;DHT22;13112;50.986;4.354;2023-02-19T04:23:42;10.90;99.90
25138;DHT22;13112;50.986;4.354;2023-02-19T04:26:09;10.90;99.90
25138;DHT22;13112;50.986;4.354;2023-02-19T04:28:37;10.90;99.90
25138;DHT22;13112;50.986;4.354;2023-02-19T04:31:02;10.90;99.90
25138;DHT22;13112;50.986;4.354;2023-02-19T04:33:28;10.90;99.90
25138;DHT22;13112;50.986;4.354;2023-02-19T04:35:54;10.90;99.90
25138;DHT22;13112;50.986;4.354;2023-02-19T04:38:19;10.90;99.90
25138;DHT22;13112;50.986;4.354;2023-02-19T04:40:45;11.00;99.90
25138;DHT22;13112;50.986;4.354;2023-02-19T04:43:11;10.90;99.90
25138;DHT22;13112;50.986;4.354;2023-02-19T04:45:37;10.90;99.90
25138;DHT22;13112;50.986;4.354;2023-02-19T04:48:04;10.80;99.90
25138;DHT22;13112;50.986;4.354;2023-02-19T04:50:30;10.80;99.90
25138;DHT22;13112;50.986;4.354;2023-02-19T04:52:56;10.80;99.90
25138;DHT22;13112;50.986;4.354;2023-02-19T04:55:22;10.80;99.90
25138;DHT22;13112;50.986;4.354;2023-02-19T04:57:47;10.90;99.90
25138;DHT22;13112;50.986;4.354;2023-02-19T05:00:13;11.00;99.90
25138;DHT22;13112;50.986;4.354;2023-02-19T05:02:39;10.90;99.90
25138;DHT22;13112;50.986;4.354;2023-02-19T05:05:05;10.90;99.90
25138;DHT22;13112;50.986;4.354;2023-02-19T05:07:31;11.00;99.90
25138;DHT22;13112;50.986;4.354;2023-02-19T05:09:56;10.90;99.90
25138;DHT22;13112;50.986;4.354;2023-02-19T05:12:24;10.90;99.90
25138;DHT22;13112;50.986;4.354;2023-02-19T05:14:50;10.90;99.90
25138;DHT22;13112;50.986;4.354;2023-02-19T05:17:15;11.00;99.90
25138;DHT22;13112;50.986;4.354;2023-02-19T05:19:41;10.90;99.90
25138;DHT22;13112;50.986;4.354;2023-02-19T05:22:07;10.80;99.90
25138;DHT22;13112;50.986;4.354;2023-02-19T05:24:32;10.80;99.90
25138;DHT22;13112;50.986;4.354;2023-02-19T05:26:58;10.70;99.90
25138;DHT22;13112;50.986;4.354;2023-02-19T05:29:24;10.90;99.90
25138;DHT22;13112;50.986;4.354;2023-02-19T05:31:50;10.80;99.90
25138;DHT22;13112;50.986;4.354;2023-02-19T05:34:15;10.80;99.90
25138;DHT22;13112;50.986;4.354;2023-02-19T05:36:41;10.90;99.90
25138;DHT22;13112;50.986;4.354;2023-02-19T05:39:07;10.80;99.90
25138;DHT22;13112;50.986;4.354;2023-02-19T05:41:33;10.90;99.90
25138;DHT22;13112;50.986;4.354;2023-02-19T05:43:59;10.80;99.90
25138;DHT22;13112;50.986;4.354;2023-02-19T05:46:27;10.80;99.90
25138;DHT22;13112;50.986;4.354;2023-02-19T05:48:54;10.70;99.90
25138;DHT22;13112;50.986;4.354;2023-02-19T05:51:22;10.70;99.90
25138;DHT22;13112;50.986;4.354;2023-02-19T05:53:49;10.80;99.90
25138;DHT22;13112;50.986;4.354;2023-02-19T05:58:53;10.80;99.90
25138;DHT22;13112;50.986;4.354;2023-02-19T06:01:21;10.80;99.90
25138;DHT22;13112;50.986;4.354;2023-02-19T06:03:48;10.80;99.90
25138;DHT22;13112;50.986;4.354;2023-02-19T06:06:15;10.90;99.90
25138;DHT22;13112;50.986;4.354;2023-02-19T06:08:41;10.80;99.90
25138;DHT22;13112;50.986;4.354;2023-02-19T06:11:07;10.70;99.90
25138;DHT22;13112;50.986;4.354;2023-02-19T06:13:33;10.70;99.90
25138;DHT22;13112;50.986;4.354;2023-02-19T06:15:59;10.70;99.90
25138;DHT22;13112;50.986;4.354;2023-02-19T06:18:24;10.60;99.90
25138;DHT22;13112;50.986;4.354;2023-02-19T06:20:50;10.60;99.90
25138;DHT22;13112;50.986;4.354;2023-02-19T06:23:16;10.60;99.90
25138;DHT22;13112;50.986;4.354;2023-02-19T06:25:41;10.70;99.90
25138;DHT22;13112;50.986;4.354;2023-02-19T06:28:07;10.80;99.90
25138;DHT22;13112;50.986;4.354;2023-02-19T06:30:35;10.70;99.90
25138;DHT22;13112;50.986;4.354;2023-02-19T06:33:01;10.70;99.90
25138;DHT22;13112;50.986;4.354;2023-02-19T06:35:27;10.70;99.90
25138;DHT22;13112;50.986;4.354;2023-02-19T06:37:52;10.70;99.90
25138;DHT22;13112;50.986;4.354;2023-02-19T06:40:18;10.80;99.90
25138;DHT22;13112;50.986;4.354;2023-02-19T06:42:44;10.80;99.90
25138;DHT22;13112;50.986;4.354;2023-02-19T06:45:09;10.80;99.90
25138;DHT22;13112;50.986;4.354;2023-02-19T06:47:35;10.70;99.90
25138;DHT22;13112;50.986;4.354;2023-02-19T06:50:01;10.80;99.90
25138;DHT22;13112;50.986;4.354;2023-02-19T06:52:26;10.60;99.90
25138;DHT22;13112;50.986;4.354;2023-02-19T06:54:52;10.50;99.90
25138;DHT22;13112;50.986;4.354;2023-02-19T06:57:18;10.50;99.90
25138;DHT22;13112;50.986;4.354;2023-02-19T06:59:44;10.50;99.90
25138;DHT22;13112;50.986;4.354;2023-02-19T07:02:11;10.70;99.90
25138;DHT22;13112;50.986;4.354;2023-02-19T07:04:37;10.70;99.90
25138;DHT22;13112;50.986;4.354;2023-02-19T07:07:03;10.70;99.90
25138;DHT22;13112;50.986;4.354;2023-02-19T07:09:29;10.70;99.90
25138;DHT22;13112;50.986;4.354;2023-02-19T07:11:55;10.80;99.90
25138;DHT22;13112;50.986;4.354;2023-02-19T07:14:21;10.90;99.90
25138;DHT22;13112;50.986;4.354;2023-02-19T07:16:47;11.00;99.90
25138;DHT22;13112;50.986;4.354;2023-02-19T07:19:13;11.10;99.90
25138;DHT22;13112;50.986;4.354;2023-02-19T07:21:40;11.10;99.90
25138;DHT22;13112;50.986;4.354;2023-02-19T07:24:07;11.30;99.90
25138;DHT22;13112;50.986;4.354;2023-02-19T07:26:33;11.20;99.90
25138;DHT22;13112;50.986;4.354;2023-02-19T07:28:59;11.10;99.90
25138;DHT22;13112;50.986;4.354;2023-02-19T07:31:27;11.10;99.90
25138;DHT22;13112;50.986;4.354;2023-02-19T07:33:53;11.00;99.90
25138;DHT22;13112;50.986;4.354;2023-02-19T07:36:20;11.00;99.90
25138;DHT22;13112;50.986;4.354;2023-02-19T07:38:46;11.00;99.90
25138;DHT22;13112;50.986;4.354;2023-02-19T07:41:12;11.20;99.90
25138;DHT22;13112;50.986;4.354;2023-02-19T07:43:39;11.00;99.90
25138;DHT22;13112;50.986;4.354;2023-02-19T07:46:10;11.10;99.90
25138;DHT22;13112;50.986;4.354;2023-02-19T07:48:36;11.20;99.90
25138;DHT22;13112;50.986;4.354;2023-02-19T07:51:04;11.10;99.90
25138;DHT22;13112;50.986;4.354;2023-02-19T07:53:31;11.00;99.90
25138;DHT22;13112;50.986;4.354;2023-02-19T07:56:02;11.00;99.90
25138;DHT22;13112;50.986;4.354;2023-02-19T07:58:28;11.00;99.90
25138;DHT22;13112;50.986;4.354;2023-02-19T08:00:54;11.10;99.90
25138;DHT22;13112;50.986;4.354;2023-02-19T08:03:20;10.90;99.90
25138;DHT22;13112;50.986;4.354;2023-02-19T08:05:45;10.90;99.90
25138;DHT22;13112;50.986;4.354;2023-02-19T08:08:13;10.80;99.90
25138;DHT22;13112;50.986;4.354;2023-02-19T08:10:39;10.90;99.90
25138;DHT22;13112;50.986;4.354;2023-02-19T08:13:25;10.90;99.90
25138;DHT22;13112;50.986;4.354;2023-02-19T08:15:53;10.80;99.90
25138;DHT22;13112;50.986;4.354;2023-02-19T08:18:24;10.90;99.90
25138;DHT22;13112;50.986;4.354;2023-02-19T08:20:51;10.90;99.90
25138;DHT22;13112;50.986;4.354;2023-02-19T08:23:17;10.80;99.90
25138;DHT22;13112;50.986;4.354;2023-02-19T08:25:45;10.80;99.90
25138;DHT22;13112;50.986;4.354;2023-02-19T08:28:12;10.80;99.90
25138;DHT22;13112;50.986;4.354;2023-02-19T08:30:38;10.90;99.90
25138;DHT22;13112;50.986;4.354;2023-02-19T08:33:06;10.90;99.90
25138;DHT22;13112;50.986;4.354;2023-02-19T08:35:33;10.90;99.90
25138;DHT22;13112;50.986;4.354;2023-02-19T08:38:03;11.10;99.90
25138;DHT22;13112;50.986;4.354;2023-02-19T08:40:29;11.20;99.90
25138;DHT22;13112;50.986;4.354;2023-02-19T08:42:55;11.20;99.90
25138;DHT22;13112;50.986;4.354;2023-02-19T08:45:25;11.20;99.90
25138;DHT22;13112;50.986;4.354;2023-02-19T08:47:51;11.30;99.90
25138;DHT22;13112;50.986;4.354;2023-02-19T08:50:17;11.50;99.90
25138;DHT22;13112;50.986;4.354;2023-02-19T08:52:42;11.50;99.90
25138;DHT22;13112;50.986;4.354;2023-02-19T08:55:08;11.40;99.90
25138;DHT22;13112;50.986;4.354;2023-02-19T08:57:37;11.80;99.90
25138;DHT22;13112;50.986;4.354;2023-02-19T09:00:04;11.80;99.90
25138;DHT22;13112;50.986;4.354;2023-02-19T09:02:30;11.50;99.90
25138;DHT22;13112;50.986;4.354;2023-02-19T09:04:55;11.80;99.90
25138;DHT22;13112;50.986;4.354;2023-02-19T09:07:21;12.00;99.90
25138;DHT22;13112;50.986;4.354;2023-02-19T09:09:47;12.20;99.90
25138;DHT22;13112;50.986;4.354;2023-02-19T09:12:13;12.40;99.90
25138;DHT22;13112;50.986;4.354;2023-02-19T09:14:39;12.40;99.90
25138;DHT22;13112;50.986;4.354;2023-02-19T09:17:06;12.50;99.90
25138;DHT22;13112;50.986;4.354;2023-02-19T09:19:32;12.60;99.90
25138;DHT22;13112;50.986;4.354;2023-02-19T09:21:58;12.60;99.90
25138;DHT22;13112;50.986;4.354;2023-02-19T09:24:24;12.70;99.90
25138;DHT22;13112;50.986;4.354;2023-02-19T09:26:52;12.70;99.90
25138;DHT22;13112;50.986;4.354;2023-02-19T09:29:18;12.60;99.90
25138;DHT22;13112;50.986;4.354;2023-02-19T09:31:45;12.30;99.90
25138;DHT22;13112;50.986;4.354;2023-02-19T09:34:11;12.20;99.90
25138;DHT22;13112;50.986;4.354;2023-02-19T09:36:37;12.30;99.90
25138;DHT22;13112;50.986;4.354;2023-02-19T09:39:04;12.30;99.90
25138;DHT22;13112;50.986;4.354;2023-02-19T09:41:35;12.30;99.90
25138;DHT22;13112;50.986;4.354;2023-02-19T09:44:05;12.30;99.90
25138;DHT22;13112;50.986;4.354;2023-02-19T09:46:34;12.30;99.90
25138;DHT22;13112;50.986;4.354;2023-02-19T09:49:25;12.30;99.90
25138;DHT22;13112;50.986;4.354;2023-02-19T09:51:57;12.40;99.90
25138;DHT22;13112;50.986;4.354;2023-02-19T09:54:27;12.40;99.90
25138;DHT22;13112;50.986;4.354;2023-02-19T09:56:55;12.20;99.90
25138;DHT22;13112;50.986;4.354;2023-02-19T09:59:25;12.30;99.90
25138;DHT22;13112;50.986;4.354;2023-02-19T10:02:10;12.30;99.90
25138;DHT22;13112;50.986;4.354;2023-02-19T10:04:41;12.40;99.90
25138;DHT22;13112;50.986;4.354;2023-02-19T10:07:18;12.20;99.90
25138;DHT22;13112;50.986;4.354;2023-02-19T10:09:50;12.20;99.90
25138;DHT22;13112;50.986;4.354;2023-02-19T10:12:26;12.10;99.90
25138;DHT22;13112;50.986;4.354;2023-02-19T10:14:56;12.30;99.90
25138;DHT22;13112;50.986;4.354;2023-02-19T10:17:28;12.30;99.90
25138;DHT22;13112;50.986;4.354;2023-02-19T10:19:55;12.30;99.90
25138;DHT22;13112;50.986;4.354;2023-02-19T10:22:21;12.70;99.90
25138;DHT22;13112;50.986;4.354;2023-02-19T10:24:53;12.60;99.90
25138;DHT22;13112;50.986;4.354;2023-02-19T10:27:19;12.60;99.90
25138;DHT22;13112;50.986;4.354;2023-02-19T10:29:47;12.60;99.90
25138;DHT22;13112;50.986;4.354;2023-02-19T10:32:18;12.90;99.90
25138;DHT22;13112;50.986;4.354;2023-02-19T10:37:49;12.90;99.90
25138;DHT22;13112;50.986;4.354;2023-02-19T10:40:20;12.90;99.90
25138;DHT22;13112;50.986;4.354;2023-02-19T10:42:53;12.90;99.90
25138;DHT22;13112;50.986;4.354;2023-02-19T10:47:58;12.80;99.90
25138;DHT22;13112;50.986;4.354;2023-02-19T10:50:33;12.70;99.90
25138;DHT22;13112;50.986;4.354;2023-02-19T10:53:03;12.60;99.90
25138;DHT22;13112;50.986;4.354;2023-02-19T10:55:32;12.40;99.90
25138;DHT22;13112;50.986;4.354;2023-02-19T10:58:20;12.40;99.90
25138;DHT22;13112;50.986;4.354;2023-02-19T11:00:47;12.50;99.90
25138;DHT22;13112;50.986;4.354;2023-02-19T11:03:21;12.50;99.90
25138;DHT22;13112;50.986;4.354;2023-02-19T11:06:02;12.30;99.90
25138;DHT22;13112;50.986;4.354;2023-02-19T11:08:29;12.30;99.90
25138;DHT22;13112;50.986;4.354;2023-02-19T11:10:57;12.50;99.90
25138;DHT22;13112;50.986;4.354;2023-02-19T11:13:30;12.50;99.90
25138;DHT22;13112;50.986;4.354;2023-02-19T11:15:57;12.50;99.90
25138;DHT22;13112;50.986;4.354;2023-02-19T11:18:30;12.60;99.90
25138;DHT22;13112;50.986;4.354;2023-02-19T11:21:06;12.20;99.90
25138;DHT22;13112;50.986;4.354;2023-02-19T11:23:42;12.30;99.90
25138;DHT22;13112;50.986;4.354;2023-02-19T11:26:17;12.10;99.90
25138;DHT22;13112;50.986;4.354;2023-02-19T11:28:43;12.10;99.90
25138;DHT22;13112;50.986;4.354;2023-02-19T11:38:48;12.10;99.90
25138;DHT22;13112;50.986;4.354;2023-02-19T11:54:53;12.10;99.90
25138;DHT22;13112;50.986;4.354;2023-02-19T11:57:53;12.10;99.90
25138;DHT22;13112;50.986;4.354;2023-02-19T12:00:26;12.00;99.90
25138;DHT22;13112;50.986;4.354;2023-02-19T12:03:15;11.90;99.90
25138;DHT22;13112;50.986;4.354;2023-02-19T12:12:17;12.10;99.90
25138;DHT22;13112;50.986;4.354;2023-02-19T12:14:57;12.20;99.90
25138;DHT22;13112;50.986;4.354;2023-02-19T12:29:04;12.00;99.90
25138;DHT22;13112;50.986;4.354;2023-02-19T12:39:48;12.50;99.90
25138;DHT22;13112;50.986;4.354;2023-02-19T12:44:54;12.30;99.90
25138;DHT22;13112;50.986;4.354;2023-02-19T12:47:26;12.50;99.90
25138;DHT22;13112;50.986;4.354;2023-02-19T12:50:08;12.50;99.90
25138;DHT22;13112;50.986;4.354;2023-02-19T12:52:41;12.50;99.90
25138;DHT22;13112;50.986;4.354;2023-02-19T12:55:24;12.30;99.90
25138;DHT22;13112;50.986;4.354;2023-02-19T12:57:53;12.50;99.90
25138;DHT22;13112;50.986;4.354;2023-02-19T13:03:04;12.40;99.90
25138;DHT22;13112;50.986;4.354;2023-02-19T13:10:52;12.30;99.90
25138;DHT22;13112;50.986;4.354;2023-02-19T13:13:46;12.20;99.90
25138;DHT22;13112;50.986;4.354;2023-02-19T13:16:16;12.30;99.90
25138;DHT22;13112;50.986;4.354;2023-02-19T13:18:44;12.30;99.90
25138;DHT22;13112;50.986;4.354;2023-02-19T13:21:12;12.20;99.90
25138;DHT22;13112;50.986;4.354;2023-02-19T13:24:01;12.10;99.90
25138;DHT22;13112;50.986;4.354;2023-02-19T13:26:57;11.90;99.90
25138;DHT22;13112;50.986;4.354;2023-02-19T13:32:34;12.10;99.90
25138;DHT22;13112;50.986;4.354;2023-02-19T13:37:46;12.00;99.90
25138;DHT22;13112;50.986;4.354;2023-02-19T13:43:26;11.70;99.90
25138;DHT22;13112;50.986;4.354;2023-02-19T13:45:56;11.50;99.90
25138;DHT22;13112;50.986;4.354;2023-02-19T13:59:12;12.00;99.90
25138;DHT22;13112;50.986;4.354;2023-02-19T14:14:50;11.80;99.90
25138;DHT22;13112;50.986;4.354;2023-02-19T14:19:57;11.60;99.90
25138;DHT22;13112;50.986;4.354;2023-02-19T14:28:30;11.30;99.90
25138;DHT22;13112;50.986;4.354;2023-02-19T14:34:00;11.20;99.90
25138;DHT22;13112;50.986;4.354;2023-02-19T14:36:44;11.00;99.90
25138;DHT22;13112;50.986;4.354;2023-02-19T14:39:18;10.80;99.90
25138;DHT22;13112;50.986;4.354;2023-02-19T14:41:50;10.90;99.90
25138;DHT22;13112;50.986;4.354;2023-02-19T14:44:20;11.00;99.90
25138;DHT22;13112;50.986;4.354;2023-02-19T14:47:04;10.90;99.90
25138;DHT22;13112;50.986;4.354;2023-02-19T14:49:40;10.80;99.90
25138;DHT22;13112;50.986;4.354;2023-02-19T14:52:33;10.90;99.90
25138;DHT22;13112;50.986;4.354;2023-02-19T14:55:07;11.00;99.90
25138;DHT22;13112;50.986;4.354;2023-02-19T14:57:39;10.90;99.90
25138;DHT22;13112;50.986;4.354;2023-02-19T15:00:25;10.90;99.90
25138;DHT22;13112;50.986;4.354;2023-02-19T15:02:52;10.80;99.90
25138;DHT22;13112;50.986;4.354;2023-02-19T15:05:34;10.80;99.90
25138;DHT22;13112;50.986;4.354;2023-02-19T15:08:15;10.50;99.90
25138;DHT22;13112;50.986;4.354;2023-02-19T15:10:45;10.60;99.90
25138;DHT22;13112;50.986;4.354;2023-02-19T15:13:20;10.70;99.90
25138;DHT22;13112;50.986;4.354;2023-02-19T15:15:48;10.90;99.90
25138;DHT22;13112;50.986;4.354;2023-02-19T15:18:20;11.00;99.90
25138;DHT22;13112;50.986;4.354;2023-02-19T15:20:48;11.10;99.90
25138;DHT22;13112;50.986;4.354;2023-02-19T15:23:19;11.30;99.90
25138;DHT22;13112;50.986;4.354;2023-02-19T15:25:46;11.30;99.90
25138;DHT22;13112;50.986;4.354;2023-02-19T15:31:14;11.10;99.90
25138;DHT22;13112;50.986;4.354;2023-02-19T15:33:48;11.10;99.90
25138;DHT22;13112;50.986;4.354;2023-02-19T15:36:16;11.10;99.90
25138;DHT22;13112;50.986;4.354;2023-02-19T15:38:53;11.20;99.90
25138;DHT22;13112;50.986;4.354;2023-02-19T15:41:25;11.20;99.90
25138;DHT22;13112;50.986;4.354;2023-02-19T15:44:00;11.20;99.90
25138;DHT22;13112;50.986;4.354;2023-02-19T15:46:27;11.20;99.90
25138;DHT22;13112;50.986;4.354;2023-02-19T15:49:08;11.10;99.90
25138;DHT22;13112;50.986;4.354;2023-02-19T15:51:45;11.10;99.90
25138;DHT22;13112;50.986;4.354;2023-02-19T15:57:16;11.00;99.90
25138;DHT22;13112;50.986;4.354;2023-02-19T15:59:48;11.10;99.90
25138;DHT22;13112;50.986;4.354;2023-02-19T16:02:15;10.90;99.90
25138;DHT22;13112;50.986;4.354;2023-02-19T16:04:43;10.80;99.90
25138;DHT22;13112;50.986;4.354;2023-02-19T16:07:27;10.80;99.90
25138;DHT22;13112;50.986;4.354;2023-02-19T16:10:22;10.80;99.90
25138;DHT22;13112;50.986;4.354;2023-02-19T16:12:59;10.80;99.90
25138;DHT22;13112;50.986;4.354;2023-02-19T16:15:26;10.90;99.90
25138;DHT22;13112;50.986;4.354;2023-02-19T16:17:52;10.80;99.90
25138;DHT22;13112;50.986;4.354;2023-02-19T16:20:31;10.90;99.90
25138;DHT22;13112;50.986;4.354;2023-02-19T16:23:10;10.90;99.90
25138;DHT22;13112;50.986;4.354;2023-02-19T16:25:42;10.80;99.90
25138;DHT22;13112;50.986;4.354;2023-02-19T16:28:23;10.80;99.90
25138;DHT22;13112;50.986;4.354;2023-02-19T16:31:00;10.70;99.90
25138;DHT22;13112;50.986;4.354;2023-02-19T16:35:56;10.60;99.90
25138;DHT22;13112;50.986;4.354;2023-02-19T16:38:22;10.60;99.90
25138;DHT22;13112;50.986;4.354;2023-02-19T16:43:28;10.50;99.90
25138;DHT22;13112;50.986;4.354;2023-02-19T16:45:56;10.50;99.90
25138;DHT22;13112;50.986;4.354;2023-02-19T16:48:22;10.60;99.90
25138;DHT22;13112;50.986;4.354;2023-02-19T16:50:49;10.70;99.90
25138;DHT22;13112;50.986;4.354;2023-02-19T16:53:23;10.50;99.90
25138;DHT22;13112;50.986;4.354;2023-02-19T16:55:53;10.50;99.90
25138;DHT22;13112;50.986;4.354;2023-02-19T16:58:19;10.60;99.90
25138;DHT22;13112;50.986;4.354;2023-02-19T17:00:45;10.70;99.90
25138;DHT22;13112;50.986;4.354;2023-02-19T17:03:17;10.50;99.90
25138;DHT22;13112;50.986;4.354;2023-02-19T17:05:44;10.40;99.90
25138;DHT22;13112;50.986;4.354;2023-02-19T17:08:28;10.20;99.90
25138;DHT22;13112;50.986;4.354;2023-02-19T17:10:56;10.20;99.90
25138;DHT22;13112;50.986;4.354;2023-02-19T17:13:22;10.30;99.90
25138;DHT22;13112;50.986;4.354;2023-02-19T17:15:48;10.40;99.90
25138;DHT22;13112;50.986;4.354;2023-02-19T17:18:14;10.40;99.90
25138;DHT22;13112;50.986;4.354;2023-02-19T17:20:41;10.40;99.90
25138;DHT22;13112;50.986;4.354;2023-02-19T17:23:07;10.50;99.90
25138;DHT22;13112;50.986;4.354;2023-02-19T17:25:33;10.50;99.90
25138;DHT22;13112;50.986;4.354;2023-02-19T17:27:59;10.40;99.90
25138;DHT22;13112;50.986;4.354;2023-02-19T17:30:30;10.30;99.90
25138;DHT22;13112;50.986;4.354;2023-02-19T17:32:56;10.10;99.90
25138;DHT22;13112;50.986;4.354;2023-02-19T17:35:22;10.20;99.90
25138;DHT22;13112;50.986;4.354;2023-02-19T17:37:48;10.30;99.90
25138;DHT22;13112;50.986;4.354;2023-02-19T17:40:31;10.10;99.90
25138;DHT22;13112;50.986;4.354;2023-02-19T17:42:56;10.10;99.90
25138;DHT22;13112;50.986;4.354;2023-02-19T17:45:22;10.00;99.90
25138;DHT22;13112;50.986;4.354;2023-02-19T17:47:51;10.10;99.90
25138;DHT22;13112;50.986;4.354;2023-02-19T17:50:20;10.20;99.90
25138;DHT22;13112;50.986;4.354;2023-02-19T17:52:46;10.20;99.90
25138;DHT22;13112;50.986;4.354;2023-02-19T17:55:12;10.10;99.90
25138;DHT22;13112;50.986;4.354;2023-02-19T17:57:40;10.00;99.90
25138;DHT22;13112;50.986;4.354;2023-02-19T18:00:06;10.00;99.90
25138;DHT22;13112;50.986;4.354;2023-02-19T18:02:32;9.90;99.90
25138;DHT22;13112;50.986;4.354;2023-02-19T18:04:58;10.00;99.90
25138;DHT22;13112;50.986;4.354;2023-02-19T18:07:23;10.10;99.90
25138;DHT22;13112;50.986;4.354;2023-02-19T18:09:49;10.20;99.90
25138;DHT22;13112;50.986;4.354;2023-02-19T18:12:15;10.10;99.90
25138;DHT22;13112;50.986;4.354;2023-02-19T18:14:40;10.00;99.90
25138;DHT22;13112;50.986;4.354;2023-02-19T18:17:06;9.80;99.90
25138;DHT22;13112;50.986;4.354;2023-02-19T18:19:32;9.70;99.90